默认 日期 大小 文件数 浏览量 最新下载 xml
lee-磁力链接相关资源由用户搜索指令自动获取,结果来源于网络,本站不存储任何资料,亦不承担任何责任,请于24小时内删除,搜索到46362个磁力,显示前4000条数据,用时8ms。
    {"RARBG.com.txt": 34, "BondageCafe.E0666.Kobe.Lee.XXX.720p.WMV-hUSHhUSH.wmv": 364072681, "bondagecafe.e0666.kobe.lee.xxx.720p.wmv-hushhush.nfo": 19211}
创建时间: 2018-10-30 07:29:54 大小:347.23 MB 文件数量:3 热度:41 最近下载:2025-09-17 23:11:06
    {"RARBG.txt": 30, "teachmefisting.17.10.09.darcia.lee.and.lara.west.lustfully.fisting.lara.mp4": 942138236, "teachmefisting.17.10.09.darcia.lee.and.lara.west.lustfully.fisting.lara.nfo": 5230}
创建时间: 2018-10-30 07:40:58 大小:898.5 MB 文件数量:3 热度:249 最近下载:2025-09-01 12:59:03
    {"nakedgymgirls.e13.annabelle.lee.tough.workout[N1C].mp4": 5182984271}
创建时间: 2018-10-30 07:41:16 大小:4.83 GB 文件数量:1 热度:37 最近下载:2025-05-25 07:26:01
    {"Subs": {"2_Und.srt": 118474}, "RARBG.avi": 1190542, "RARBG.txt": 30, "The.Legend.Of.Bruce.Lee.2008.BRRip.XviD.MP3-RARBG.avi": 2574144314, "The.Legend.Of.Bruce.Lee.2008.BRRip.XviD.MP3-RARBG.nfo": 3179}
创建时间: 2018-10-30 07:51:17 大小:2.4 GB 文件数量:5 热度:16 最近下载:2025-04-28 14:45:02
    {"The Secret Keepers (Unabridged).jpg": 66744, "The Secret Keepers (Unabridged).nfo": 1981, "The Secret Keepers Book of illustrations": {"The Secret Keepers Book of illustrations.pdf": 3190671}, "The Secret Keepers (Unabridged) - 001.m4b": 14575238, "The ...
创建时间: 2018-10-30 07:54:25 大小:434.83 MB 文件数量:41 热度:20 最近下载:2024-11-06 08:39:01
    {"Naughty College School Girls 5 - Miko Lee.wmv": 196625572}
创建时间: 2018-10-30 07:57:47 大小:187.52 MB 文件数量:1 热度:53 最近下载:2025-08-03 02:47:06
创建时间: 2018-10-30 08:07:46 大小:193.24 MB 文件数量:1 热度:64 最近下载:2025-09-30 00:53:02
    {"10 - Sábio.mp3": 3569664, "12 - Sambado.mp3": 5875712, "09 - Alma nua.mp3": 6938624, "06 - Seção 32.mp3": 5896192, "04 - Românticos.mp3": 6250496, "01- Contra o tempo.mp3": 6596608, "03 - Pra ela passar.mp3": 5752832, "05 - Aquela estrela.mp3": 5093376, ...
创建时间: 2018-10-30 08:14:57 大小:76.07 MB 文件数量:13 热度:14 最近下载:2024-12-02 10:29:04
    {"01. Carousel.mp3": 10024612, "08. All I Want.mp3": 8537726, "04. Count Me In.mp3": 8632814, "10. Don't Give Up.mp3": 7970354, "02. Walk This Road.mp3": 9581587, "09. If We Quit Now.mp3": 9157359, "07. Sound of a Train.mp3": 11889771, "11. Back in the ...
创建时间: 2018-10-30 08:19:45 大小:105.1 MB 文件数量:12 热度:26 最近下载:2025-08-05 08:13:03
    {"03 Tripwire.mp3": 227024865, "09 One Shot.mp3": 185423409, "14 61 Hours.mp3": 189751920, "07 Persuader.mp3": 187198816, "08 The Enemy.mp3": 208655561, "02 Die Trying.mp3": 216418552, "16 The Affair.mp3": 202897607, "05 Echo Burning.mp3": 202677386, "06 ...
创建时间: 2018-10-30 08:23:20 大小:3.11 GB 文件数量:17 热度:35 最近下载:2025-08-03 23:33:07
    ... 18135670, "14-Rockin' Jerry Lee.flac": 17775802, "04-Got You ... Me).flac": 15619147}, "Jerry Lee Lewis - Killer-Mercury Years, ... .flac": 14094463, "15-Stagger Lee.flac": 14732525, "07-Reuben ... Me).flac": 15142623}, "Jerry Lee Lewis - Killer-Mercury Years, ...
创建时间: 2018-10-30 08:44:29 大小:1.19 GB 文件数量:73 热度:11 最近下载:2025-05-16 01:56:01
    ... - spiders.flac": 31979618, "04 - deep lee.flac": 38311554, "05 - stella by ... .flac": 18290286, "Lee Konitz and Minsarah - Deep Lee.log": 26146, "Lee Konitz and ... Minsarah - Deep Lee.m3u": 940 ...
创建时间: 2018-10-30 08:58:27 大小:332.3 MB 文件数量:15 热度:19 最近下载:2023-03-29 14:30:03
    {"1.jpg": 268157, "pic.jpg": 25772, "MIH_Bridgette_Lee.wmv": 122094256}
创建时间: 2018-10-30 09:03:32 大小:116.72 MB 文件数量:3 热度:15 最近下载:2023-03-29 14:40:04
    {"Image.jpg": 75308, "My.Girl.Loves.Anal-Abby.Lee.Brazil-[DonBass].mp4": 584699716, "My.Girl.Loves.Anal-Abby.Lee.Brazil-[DonBass].nfo": 1439}
创建时间: 2018-10-30 09:03:45 大小:557.69 MB 文件数量:3 热度:51 最近下载:2025-08-03 12:18:02
    {"RARBG.txt": 30, "fugli.nfo": 12171, "file_id.diz": 676, "lee_anne_s3-001.jpg": 2128562, "lee_anne_s3-002.jpg": 2203002, "lee_anne_s3-003.jpg": 1685639, "lee_anne_s3-004.jpg": 2026586, "lee_anne_s3-005.jpg": 1835588, "lee_anne_s3-006.jpg": 2159421, " ...
创建时间: 2018-10-30 09:55:05 大小:177.64 MB 文件数量:112 热度:46 最近下载:2025-08-01 21:45:04
    {"Cover.jpg": 190236, "05. Tush.mp3": 5942100, "03. Dreams.mp3": 14519669, "04. Jessica.mp3": 17295964, "07. Freebird.mp3": 18854953, "08. Pine Box.mp3": 7314055, "01. Dust My Broom.mp3": 9858387, "02. Thunder and Lightning.mp3": 17236419, "06. Ghostriders ...
创建时间: 2018-10-30 10:17:26 大小:102.59 MB 文件数量:9 热度:13 最近下载:2025-08-01 11:44:06
    ... , What a Night.flac": 51802139, "Lee Morgan - The Sidewinder.log": 3547 ... , "Lee Morgan - The Sidewinder.m3u": 166, " ...
创建时间: 2018-10-30 10:54:33 大小:326.17 MB 文件数量:15 热度:16 最近下载:2025-06-08 09:54:01
    {"Sample": {"ktr.pfs.12.06.08.jenni.lee.mp4": 34885699}, "RARBG.com.txt": 34, "ktr.pfs.12.06.08.jenni.lee.mp4": 1354840159, "ktr.pfs.12.06.08.jenni.lee.nfo": 6893}
创建时间: 2018-10-30 10:55:56 大小:1.29 GB 文件数量:4 热度:237 最近下载:2025-09-24 08:39:02
    {"1.jpg": 442848, "pic.jpg": 447203, "lucked_out_big.wmv": 342009138}
创建时间: 2018-10-30 11:09:25 大小:327.01 MB 文件数量:3 热度:35 最近下载:2025-09-29 23:59:02
    {"bignaturals.18.05.23.kara.lee.big.boob.problems[N1C].mp4": 3812816372}
创建时间: 2018-10-30 11:33:57 大小:3.55 GB 文件数量:1 热度:90 最近下载:2025-08-04 03:32:07